sensor_id;sensor_type;location;lat;lon;timestamp;pressure;altitude;pressure_sealevel;temperature;humidity
29239;BME280;16267;48.194;11.546;2023-02-08T00:01:54;97793.81;;;-2.20;54.80
29239;BME280;16267;48.194;11.546;2023-02-08T00:04:20;97795.66;;;-2.20;54.61
29239;BME280;16267;48.194;11.546;2023-02-08T00:06:45;97792.78;;;-2.24;54.90
29239;BME280;16267;48.194;11.546;2023-02-08T00:09:11;97792.00;;;-2.25;55.04
29239;BME280;16267;48.194;11.546;2023-02-08T00:11:37;97799.88;;;-2.25;55.24
29239;BME280;16267;48.194;11.546;2023-02-08T00:14:03;97788.88;;;-2.27;55.32
29239;BME280;16267;48.194;11.546;2023-02-08T00:16:29;97789.91;;;-2.28;55.30
29239;BME280;16267;48.194;11.546;2023-02-08T00:18:55;97786.25;;;-2.32;55.19
29239;BME280;16267;48.194;11.546;2023-02-08T00:21:21;97781.00;;;-2.32;55.26
29239;BME280;16267;48.194;11.546;2023-02-08T00:23:47;97793.38;;;-2.32;55.60
29239;BME280;16267;48.194;11.546;2023-02-08T00:26:13;97783.88;;;-2.33;55.58
29239;BME280;16267;48.194;11.546;2023-02-08T00:28:39;97787.59;;;-2.34;55.42
29239;BME280;16267;48.194;11.546;2023-02-08T00:31:05;97784.19;;;-2.35;55.78
29239;BME280;16267;48.194;11.546;2023-02-08T00:33:32;97781.03;;;-2.37;55.79
29239;BME280;16267;48.194;11.546;2023-02-08T00:36:00;97771.56;;;-2.38;55.79
29239;BME280;16267;48.194;11.546;2023-02-08T00:38:27;97774.47;;;-2.39;55.52
29239;BME280;16267;48.194;11.546;2023-02-08T00:40:53;97776.31;;;-2.40;55.70
29239;BME280;16267;48.194;11.546;2023-02-08T00:43:19;97767.91;;;-2.42;55.98
29239;BME280;16267;48.194;11.546;2023-02-08T00:45:45;97768.19;;;-2.43;55.51
29239;BME280;16267;48.194;11.546;2023-02-08T00:48:10;97771.06;;;-2.45;55.71
29239;BME280;16267;48.194;11.546;2023-02-08T00:50:36;97772.16;;;-2.46;55.68
29239;BME280;16267;48.194;11.546;2023-02-08T00:53:02;97769.00;;;-2.48;55.94
29239;BME280;16267;48.194;11.546;2023-02-08T00:55:28;97769.25;;;-2.50;55.76
29239;BME280;16267;48.194;11.546;2023-02-08T00:57:54;97779.56;;;-2.58;55.02
29239;BME280;16267;48.194;11.546;2023-02-08T01:00:21;97771.41;;;-2.57;55.83
29239;BME280;16267;48.194;11.546;2023-02-08T01:02:46;97776.66;;;-2.57;56.00
29239;BME280;16267;48.194;11.546;2023-02-08T01:05:12;97780.34;;;-2.58;56.17
29239;BME280;16267;48.194;11.546;2023-02-08T01:07:38;97778.00;;;-2.59;55.90
29239;BME280;16267;48.194;11.546;2023-02-08T01:10:06;97779.06;;;-2.60;55.94
29239;BME280;16267;48.194;11.546;2023-02-08T01:12:33;97774.84;;;-2.61;56.23
29239;BME280;16267;48.194;11.546;2023-02-08T01:14:59;97784.56;;;-2.62;56.21
29239;BME280;16267;48.194;11.546;2023-02-08T01:17:25;97776.16;;;-2.64;56.04
29239;BME280;16267;48.194;11.546;2023-02-08T01:19:51;97778.28;;;-2.66;56.04
29239;BME280;16267;48.194;11.546;2023-02-08T01:22:16;97776.69;;;-2.67;56.27
29239;BME280;16267;48.194;11.546;2023-02-08T01:24:42;97774.34;;;-2.68;56.27
29239;BME280;16267;48.194;11.546;2023-02-08T01:27:08;97778.81;;;-2.69;56.52
29239;BME280;16267;48.194;11.546;2023-02-08T01:29:34;97771.22;;;-2.71;56.59
29239;BME280;16267;48.194;11.546;2023-02-08T01:31:59;97778.56;;;-2.73;56.67
29239;BME280;16267;48.194;11.546;2023-02-08T01:34:26;97765.72;;;-2.74;56.61
29239;BME280;16267;48.194;11.546;2023-02-08T01:36:52;97772.00;;;-2.75;56.82
29239;BME280;16267;48.194;11.546;2023-02-08T01:39:18;97764.13;;;-2.75;56.69
29239;BME280;16267;48.194;11.546;2023-02-08T01:41:44;97771.22;;;-2.76;56.79
29239;BME280;16267;48.194;11.546;2023-02-08T01:46:44;97769.13;;;-2.79;56.81
29239;BME280;16267;48.194;11.546;2023-02-08T01:49:26;97766.00;;;-2.81;56.70
29239;BME280;16267;48.194;11.546;2023-02-08T01:52:04;97773.09;;;-2.81;56.84
29239;BME280;16267;48.194;11.546;2023-02-08T01:54:39;97762.84;;;-2.83;56.91
29239;BME280;16267;48.194;11.546;2023-02-08T01:57:07;97763.91;;;-2.84;56.77
29239;BME280;16267;48.194;11.546;2023-02-08T01:59:47;97764.19;;;-2.85;57.12
29239;BME280;16267;48.194;11.546;2023-02-08T02:02:18;97763.38;;;-2.86;57.05
29239;BME280;16267;48.194;11.546;2023-02-08T02:04:44;97770.47;;;-2.86;57.26
29239;BME280;16267;48.194;11.546;2023-02-08T02:07:11;97762.06;;;-2.88;57.20
29239;BME280;16267;48.194;11.546;2023-02-08T02:12:53;97756.31;;;-2.90;57.17
29239;BME280;16267;48.194;11.546;2023-02-08T02:15:20;97754.72;;;-2.92;57.14
29239;BME280;16267;48.194;11.546;2023-02-08T02:17:46;97755.25;;;-2.95;57.36
29239;BME280;16267;48.194;11.546;2023-02-08T02:26:15;97749.25;;;-3.00;57.16
29239;BME280;16267;48.194;11.546;2023-02-08T02:29:52;97750.56;;;-3.03;57.42
29239;BME280;16267;48.194;11.546;2023-02-08T02:35:26;97747.94;;;-3.08;57.22
29239;BME280;16267;48.194;11.546;2023-02-08T02:41:32;97746.66;;;-3.10;57.61
29239;BME280;16267;48.194;11.546;2023-02-08T02:48:09;97750.63;;;-3.13;57.91
29239;BME280;16267;48.194;11.546;2023-02-08T02:50:23;97750.88;;;-3.15;57.76
29239;BME280;16267;48.194;11.546;2023-02-08T02:55:47;97748.50;;;-3.16;57.99
29239;BME280;16267;48.194;11.546;2023-02-08T02:58:19;97752.47;;;-3.19;57.81
29239;BME280;16267;48.194;11.546;2023-02-08T03:00:56;97746.94;;;-3.22;57.41
29239;BME280;16267;48.194;11.546;2023-02-08T03:03:26;97746.94;;;-3.22;57.98
29239;BME280;16267;48.194;11.546;2023-02-08T03:05:59;97746.44;;;-3.24;57.82
29239;BME280;16267;48.194;11.546;2023-02-08T03:08:50;97746.47;;;-3.29;57.61
29239;BME280;16267;48.194;11.546;2023-02-08T03:11:33;97742.78;;;-3.33;58.05
29239;BME280;16267;48.194;11.546;2023-02-08T03:14:40;97750.94;;;-3.35;58.15
29239;BME280;16267;48.194;11.546;2023-02-08T03:20:10;97747.25;;;-3.39;57.89
29239;BME280;16267;48.194;11.546;2023-02-08T03:23:07;97753.59;;;-3.45;58.27
29239;BME280;16267;48.194;11.546;2023-02-08T03:32:10;97745.97;;;-3.47;58.65
29239;BME280;16267;48.194;11.546;2023-02-08T03:35:36;97740.72;;;-3.47;58.43
29239;BME280;16267;48.194;11.546;2023-02-08T03:38:09;97744.41;;;-3.48;58.43
29239;BME280;16267;48.194;11.546;2023-02-08T03:40:47;97749.13;;;-3.50;58.44
29239;BME280;16267;48.194;11.546;2023-02-08T03:43:24;97743.38;;;-3.52;58.74
29239;BME280;16267;48.194;11.546;2023-02-08T03:46:01;97742.06;;;-3.54;58.75
29239;BME280;16267;48.194;11.546;2023-02-08T03:48:28;97751.50;;;-3.53;58.94
29239;BME280;16267;48.194;11.546;2023-02-08T03:50:56;97740.75;;;-3.57;58.83
29239;BME280;16267;48.194;11.546;2023-02-08T03:53:25;97743.91;;;-3.60;58.46
29239;BME280;16267;48.194;11.546;2023-02-08T03:55:59;97738.66;;;-3.60;59.00
29239;BME280;16267;48.194;11.546;2023-02-08T03:58:35;97739.69;;;-3.61;59.07
29239;BME280;16267;48.194;11.546;2023-02-08T04:01:19;97741.28;;;-3.65;58.83
29239;BME280;16267;48.194;11.546;2023-02-08T04:03:49;97737.59;;;-3.64;59.12
29239;BME280;16267;48.194;11.546;2023-02-08T04:06:19;97738.91;;;-3.67;59.40
29239;BME280;16267;48.194;11.546;2023-02-08T04:08:45;97737.34;;;-3.68;59.30
29239;BME280;16267;48.194;11.546;2023-02-08T04:11:11;97730.50;;;-3.69;59.58
29239;BME280;16267;48.194;11.546;2023-02-08T04:13:37;97732.09;;;-3.68;59.39
29239;BME280;16267;48.194;11.546;2023-02-08T04:16:03;97730.50;;;-3.69;59.45
29239;BME280;16267;48.194;11.546;2023-02-08T04:18:29;97723.16;;;-3.72;59.59
29239;BME280;16267;48.194;11.546;2023-02-08T04:20:55;97722.66;;;-3.74;59.98
29239;BME280;16267;48.194;11.546;2023-02-08T04:23:20;97718.72;;;-3.76;60.45
29239;BME280;16267;48.194;11.546;2023-02-08T04:25:46;97715.03;;;-3.86;59.92
29239;BME280;16267;48.194;11.546;2023-02-08T04:28:12;97716.88;;;-3.81;60.54
29239;BME280;16267;48.194;11.546;2023-02-08T04:30:38;97717.94;;;-3.82;60.30
29239;BME280;16267;48.194;11.546;2023-02-08T04:33:03;97710.59;;;-3.85;60.52
29239;BME280;16267;48.194;11.546;2023-02-08T04:35:29;97718.72;;;-3.92;60.56
29239;BME280;16267;48.194;11.546;2023-02-08T04:37:55;97708.00;;;-3.90;61.13
29239;BME280;16267;48.194;11.546;2023-02-08T04:40:20;97714.25;;;-3.91;60.97
29239;BME280;16267;48.194;11.546;2023-02-08T04:42:46;97711.38;;;-3.90;61.16
29239;BME280;16267;48.194;11.546;2023-02-08T04:45:12;97709.03;;;-3.86;60.98
29239;BME280;16267;48.194;11.546;2023-02-08T04:47:38;97714.53;;;-3.88;61.08
29239;BME280;16267;48.194;11.546;2023-02-08T04:50:04;97716.88;;;-3.86;61.05
29239;BME280;16267;48.194;11.546;2023-02-08T04:52:29;97717.41;;;-3.84;60.93
29239;BME280;16267;48.194;11.546;2023-02-08T04:54:55;97718.97;;;-3.83;60.95
29239;BME280;16267;48.194;11.546;2023-02-08T04:57:21;97712.97;;;-3.84;60.86
29239;BME280;16267;48.194;11.546;2023-02-08T04:59:47;97711.13;;;-3.83;60.83
29239;BME280;16267;48.194;11.546;2023-02-08T05:02:12;97712.41;;;-3.86;61.13
29239;BME280;16267;48.194;11.546;2023-02-08T05:04:38;97705.09;;;-3.84;60.81
29239;BME280;16267;48.194;11.546;2023-02-08T05:07:04;97707.47;;;-3.82;60.95
29239;BME280;16267;48.194;11.546;2023-02-08T05:09:30;97704.03;;;-3.83;60.76
29239;BME280;16267;48.194;11.546;2023-02-08T05:11:55;97699.59;;;-3.82;60.75
29239;BME280;16267;48.194;11.546;2023-02-08T05:14:21;97701.41;;;-3.83;60.56
29239;BME280;16267;48.194;11.546;2023-02-08T05:16:47;97702.47;;;-3.84;60.40
29239;BME280;16267;48.194;11.546;2023-02-08T05:19:12;97701.41;;;-3.83;60.98
29239;BME280;16267;48.194;11.546;2023-02-08T05:21:38;97699.84;;;-3.84;60.60
29239;BME280;16267;48.194;11.546;2023-02-08T05:24:04;97698.53;;;-3.86;61.01
29239;BME280;16267;48.194;11.546;2023-02-08T05:26:31;97696.69;;;-3.86;60.99
29239;BME280;16267;48.194;11.546;2023-02-08T05:28:57;97700.38;;;-3.87;61.21
29239;BME280;16267;48.194;11.546;2023-02-08T05:31:24;97699.59;;;-3.92;60.79
29239;BME280;16267;48.194;11.546;2023-02-08T05:33:51;97703.53;;;-3.90;61.55
29239;BME280;16267;48.194;11.546;2023-02-08T05:36:19;97700.91;;;-3.90;61.25
29239;BME280;16267;48.194;11.546;2023-02-08T05:38:45;97702.47;;;-3.94;61.54
29239;BME280;16267;48.194;11.546;2023-02-08T05:41:11;97704.31;;;-3.94;61.83
29239;BME280;16267;48.194;11.546;2023-02-08T05:43:36;97697.50;;;-3.95;61.76
29239;BME280;16267;48.194;11.546;2023-02-08T05:46:02;97699.06;;;-3.94;61.80
29239;BME280;16267;48.194;11.546;2023-02-08T05:48:30;97697.22;;;-3.94;61.58
29239;BME280;16267;48.194;11.546;2023-02-08T05:50:56;97693.81;;;-3.99;61.85
29239;BME280;16267;48.194;11.546;2023-02-08T05:53:22;97697.25;;;-4.04;61.91
29239;BME280;16267;48.194;11.546;2023-02-08T05:55:47;97688.84;;;-4.01;62.34
29239;BME280;16267;48.194;11.546;2023-02-08T05:58:14;97697.50;;;-4.00;62.13
29239;BME280;16267;48.194;11.546;2023-02-08T06:00:40;97698.81;;;-4.03;62.32
29239;BME280;16267;48.194;11.546;2023-02-08T06:03:06;97695.94;;;-4.01;62.37
29239;BME280;16267;48.194;11.546;2023-02-08T06:05:32;97696.72;;;-4.01;62.03
29239;BME280;16267;48.194;11.546;2023-02-08T06:07:58;97700.66;;;-4.04;62.26
29239;BME280;16267;48.194;11.546;2023-02-08T06:10:24;97695.41;;;-4.09;62.91
29239;BME280;16267;48.194;11.546;2023-02-08T06:12:50;97695.69;;;-4.15;63.09
29239;BME280;16267;48.194;11.546;2023-02-08T06:15:16;97688.84;;;-4.21;63.42
29239;BME280;16267;48.194;11.546;2023-02-08T06:17:41;97692.78;;;-4.19;63.88
29239;BME280;16267;48.194;11.546;2023-02-08T06:20:08;97692.75;;;-4.24;63.51
29239;BME280;16267;48.194;11.546;2023-02-08T06:22:34;97693.56;;;-4.23;63.68
29239;BME280;16267;48.194;11.546;2023-02-08T06:25:00;97688.34;;;-4.23;63.90
29239;BME280;16267;48.194;11.546;2023-02-08T06:27:26;97692.75;;;-4.24;64.04
29239;BME280;16267;48.194;11.546;2023-02-08T06:29:52;97692.25;;;-4.31;64.18
29239;BME280;16267;48.194;11.546;2023-02-08T06:32:18;97690.69;;;-4.32;64.51
29239;BME280;16267;48.194;11.546;2023-02-08T06:34:44;97693.56;;;-4.34;64.22
29239;BME280;16267;48.194;11.546;2023-02-08T06:37:09;97709.03;;;-4.37;64.21
29239;BME280;16267;48.194;11.546;2023-02-08T06:39:35;97709.81;;;-4.32;64.38
29239;BME280;16267;48.194;11.546;2023-02-08T06:42:01;97709.28;;;-4.34;64.33
29239;BME280;16267;48.194;11.546;2023-02-08T06:44:27;97715.31;;;-4.33;64.21
29239;BME280;16267;48.194;11.546;2023-02-08T06:46:53;97713.75;;;-4.34;63.88
29239;BME280;16267;48.194;11.546;2023-02-08T06:49:19;97723.19;;;-4.28;64.69
29239;BME280;16267;48.194;11.546;2023-02-08T06:51:44;97727.13;;;-4.26;64.20
29239;BME280;16267;48.194;11.546;2023-02-08T06:54:10;97734.44;;;-4.33;64.18
29239;BME280;16267;48.194;11.546;2023-02-08T06:56:36;97737.88;;;-4.32;64.57
29239;BME280;16267;48.194;11.546;2023-02-08T06:59:02;97736.53;;;-4.30;64.70
29239;BME280;16267;48.194;11.546;2023-02-08T07:01:28;97727.13;;;-4.26;64.64
29239;BME280;16267;48.194;11.546;2023-02-08T07:03:54;97734.22;;;-4.26;64.05
29239;BME280;16267;48.194;11.546;2023-02-08T07:06:19;97738.66;;;-4.21;64.38
29239;BME280;16267;48.194;11.546;2023-02-08T07:08:46;97735.53;;;-4.18;64.49
29239;BME280;16267;48.194;11.546;2023-02-08T07:11:17;97737.88;;;-4.12;64.20
29239;BME280;16267;48.194;11.546;2023-02-08T07:13:49;97731.88;;;-4.07;64.27
29239;BME280;16267;48.194;11.546;2023-02-08T07:16:16;97727.41;;;-4.01;64.16
29239;BME280;16267;48.194;11.546;2023-02-08T07:18:42;97733.97;;;-3.99;64.08
29239;BME280;16267;48.194;11.546;2023-02-08T07:21:08;97730.81;;;-3.96;64.21
29239;BME280;16267;48.194;11.546;2023-02-08T07:23:39;97737.09;;;-3.92;64.10
29239;BME280;16267;48.194;11.546;2023-02-08T07:26:08;97729.75;;;-3.95;64.56
29239;BME280;16267;48.194;11.546;2023-02-08T07:28:35;97738.41;;;-3.89;64.20
29239;BME280;16267;48.194;11.546;2023-02-08T07:31:13;97738.66;;;-3.86;64.43
29239;BME280;16267;48.194;11.546;2023-02-08T07:33:40;97734.19;;;-3.80;64.47
29239;BME280;16267;48.194;11.546;2023-02-08T07:36:07;97736.81;;;-3.75;64.47
29239;BME280;16267;48.194;11.546;2023-02-08T07:38:34;97732.63;;;-3.71;64.29
29239;BME280;16267;48.194;11.546;2023-02-08T07:41:10;97733.41;;;-3.65;63.87
29239;BME280;16267;48.194;11.546;2023-02-08T07:43:37;97734.19;;;-3.60;64.30
29239;BME280;16267;48.194;11.546;2023-02-08T07:46:09;97730.50;;;-3.59;63.77
29239;BME280;16267;48.194;11.546;2023-02-08T07:48:36;97735.50;;;-3.52;64.02
29239;BME280;16267;48.194;11.546;2023-02-08T07:51:03;97736.53;;;-3.53;64.23
29239;BME280;16267;48.194;11.546;2023-02-08T07:53:29;97726.53;;;-3.46;64.52
29239;BME280;16267;48.194;11.546;2023-02-08T07:55:55;97714.19;;;-3.40;64.29
29239;BME280;16267;48.194;11.546;2023-02-08T07:58:22;97717.31;;;-3.38;63.71
29239;BME280;16267;48.194;11.546;2023-02-08T08:00:48;97719.69;;;-3.42;63.93
29239;BME280;16267;48.194;11.546;2023-02-08T08:03:13;97721.00;;;-3.29;64.36
29239;BME280;16267;48.194;11.546;2023-02-08T08:05:40;97722.53;;;-3.23;64.34
29239;BME280;16267;48.194;11.546;2023-02-08T08:08:10;97728.81;;;-3.14;64.35
29239;BME280;16267;48.194;11.546;2023-02-08T08:10:36;97720.44;;;-3.16;63.88
29239;BME280;16267;48.194;11.546;2023-02-08T08:13:03;97729.56;;;-3.03;64.53
29239;BME280;16267;48.194;11.546;2023-02-08T08:15:29;97728.22;;;-2.95;63.75
29239;BME280;16267;48.194;11.546;2023-02-08T08:17:55;97728.94;;;-2.79;64.71
29239;BME280;16267;48.194;11.546;2023-02-08T08:20:22;97727.53;;;-2.61;64.16
29239;BME280;16267;48.194;11.546;2023-02-08T08:22:49;97728.84;;;-2.25;64.26
29239;BME280;16267;48.194;11.546;2023-02-08T08:25:14;97722.88;;;-1.96;61.89
29239;BME280;16267;48.194;11.546;2023-02-08T08:27:40;97728.38;;;-1.63;60.25
29239;BME280;16267;48.194;11.546;2023-02-08T08:30:12;97733.72;;;-1.20;58.62
29239;BME280;16267;48.194;11.546;2023-02-08T08:32:38;97724.88;;;-0.43;57.12
29239;BME280;16267;48.194;11.546;2023-02-08T08:35:06;97729.09;;;0.09;57.79
29239;BME280;16267;48.194;11.546;2023-02-08T08:37:32;97726.72;;;0.08;57.10
29239;BME280;16267;48.194;11.546;2023-02-08T08:39:59;97719.34;;;0.24;56.50
29239;BME280;16267;48.194;11.546;2023-02-08T08:42:24;97728.94;;;0.19;56.41
29239;BME280;16267;48.194;11.546;2023-02-08T08:44:52;97722.47;;;0.58;54.80
29239;BME280;16267;48.194;11.546;2023-02-08T08:47:18;97726.72;;;0.40;54.41
29239;BME280;16267;48.194;11.546;2023-02-08T08:49:43;97723.50;;;0.57;53.17
29239;BME280;16267;48.194;11.546;2023-02-08T08:52:10;97732.63;;;0.65;53.79
29239;BME280;16267;48.194;11.546;2023-02-08T08:54:36;97724.72;;;0.93;53.18
29239;BME280;16267;48.194;11.546;2023-02-08T08:57:03;97727.53;;;0.82;52.68
29239;BME280;16267;48.194;11.546;2023-02-08T08:59:29;97725.59;;;0.74;52.14
29239;BME280;16267;48.194;11.546;2023-02-08T09:01:54;97726.47;;;0.56;51.13
29239;BME280;16267;48.194;11.546;2023-02-08T09:04:20;97727.72;;;0.44;51.75
29239;BME280;16267;48.194;11.546;2023-02-08T09:06:50;97720.03;;;0.29;52.76
29239;BME280;16267;48.194;11.546;2023-02-08T09:09:17;97717.66;;;-0.19;53.26
29239;BME280;16267;48.194;11.546;2023-02-08T09:11:43;97720.94;;;-0.27;53.99
29239;BME280;16267;48.194;11.546;2023-02-08T09:14:09;97720.00;;;-0.36;54.43
29239;BME280;16267;48.194;11.546;2023-02-08T09:16:35;97720.81;;;-0.36;54.96
29239;BME280;16267;48.194;11.546;2023-02-08T09:19:03;97729.34;;;-0.25;55.11
29239;BME280;16267;48.194;11.546;2023-02-08T09:21:30;97728.88;;;-0.27;54.97
29239;BME280;16267;48.194;11.546;2023-02-08T09:23:56;97726.84;;;-0.16;54.68
29239;BME280;16267;48.194;11.546;2023-02-08T09:26:23;97725.00;;;-0.16;55.44
29239;BME280;16267;48.194;11.546;2023-02-08T09:28:51;97720.44;;;-0.29;55.55
29239;BME280;16267;48.194;11.546;2023-02-08T09:31:27;97720.94;;;-0.08;55.31
29239;BME280;16267;48.194;11.546;2023-02-08T09:33:57;97726.72;;;0.08;55.67
29239;BME280;16267;48.194;11.546;2023-02-08T09:36:27;97723.97;;;-0.01;55.35
29239;BME280;16267;48.194;11.546;2023-02-08T09:39:15;97729.94;;;0.05;54.49
29239;BME280;16267;48.194;11.546;2023-02-08T09:50:39;97729.38;;;0.40;54.10
29239;BME280;16267;48.194;11.546;2023-02-08T09:53:21;97737.91;;;0.65;55.29
29239;BME280;16267;48.194;11.546;2023-02-08T09:56:00;97736.56;;;0.95;52.85
29239;BME280;16267;48.194;11.546;2023-02-08T09:58:40;97743.81;;;0.89;53.41
29239;BME280;16267;48.194;11.546;2023-02-08T10:01:20;97743.31;;;0.87;52.17
29239;BME280;16267;48.194;11.546;2023-02-08T10:03:51;97736.63;;;0.62;53.07
29239;BME280;16267;48.194;11.546;2023-02-08T10:06:19;97740.38;;;0.61;53.15
29239;BME280;16267;48.194;11.546;2023-02-08T10:08:49;97730.69;;;0.71;53.33
29239;BME280;16267;48.194;11.546;2023-02-08T10:23:02;97719.31;;;0.70;52.77
29239;BME280;16267;48.194;11.546;2023-02-08T10:26:04;97717.38;;;0.62;53.92
29239;BME280;16267;48.194;11.546;2023-02-08T10:29:35;97711.75;;;0.50;53.69
29239;BME280;16267;48.194;11.546;2023-02-08T10:32:35;97713.50;;;0.40;54.36
29239;BME280;16267;48.194;11.546;2023-02-08T10:35:14;97717.09;;;0.17;54.72
29239;BME280;16267;48.194;11.546;2023-02-08T10:37:43;97714.56;;;0.26;54.51
29239;BME280;16267;48.194;11.546;2023-02-08T10:42:54;97698.47;;;0.82;54.79
29239;BME280;16267;48.194;11.546;2023-02-08T10:45:31;97695.72;;;1.01;54.21
29239;BME280;16267;48.194;11.546;2023-02-08T10:48:06;97692.81;;;0.89;54.45
29239;BME280;16267;48.194;11.546;2023-02-08T10:50:41;97690.63;;;0.91;54.73
29239;BME280;16267;48.194;11.546;2023-02-08T10:53:15;97683.69;;;0.95;54.44
29239;BME280;16267;48.194;11.546;2023-02-08T10:55:44;97680.72;;;0.97;55.30
29239;BME280;16267;48.194;11.546;2023-02-08T10:58:20;97679.66;;;0.98;55.26
29239;BME280;16267;48.194;11.546;2023-02-08T11:00:47;97682.22;;;1.03;55.14
29239;BME280;16267;48.194;11.546;2023-02-08T11:03:26;97667.69;;;1.14;54.69
29239;BME280;16267;48.194;11.546;2023-02-08T11:05:53;97655.69;;;1.67;53.17
29239;BME280;16267;48.194;11.546;2023-02-08T11:08:23;97669.09;;;1.70;51.86
29239;BME280;16267;48.194;11.546;2023-02-08T11:11:08;97657.78;;;1.78;52.80
29239;BME280;16267;48.194;11.546;2023-02-08T11:13:38;97661.44;;;1.69;53.02
29239;BME280;16267;48.194;11.546;2023-02-08T11:16:25;97659.94;;;1.54;52.94
29239;BME280;16267;48.194;11.546;2023-02-08T11:18:57;97666.81;;;1.77;52.94
29239;BME280;16267;48.194;11.546;2023-02-08T11:24:05;97673.88;;;2.13;52.18
29239;BME280;16267;48.194;11.546;2023-02-08T11:26:36;97668.44;;;2.18;51.70
29239;BME280;16267;48.194;11.546;2023-02-08T11:29:18;97658.94;;;2.17;51.11
29239;BME280;16267;48.194;11.546;2023-02-08T11:32:02;97664.50;;;2.38;51.71
29239;BME280;16267;48.194;11.546;2023-02-08T11:34:38;97665.94;;;2.44;50.69
29239;BME280;16267;48.194;11.546;2023-02-08T11:37:23;97660.53;;;2.27;50.89
29239;BME280;16267;48.194;11.546;2023-02-08T11:39:58;97656.31;;;2.66;50.17
29239;BME280;16267;48.194;11.546;2023-02-08T11:42:30;97652.09;;;2.56;49.82
29239;BME280;16267;48.194;11.546;2023-02-08T11:44:59;97648.47;;;2.52;49.73
29239;BME280;16267;48.194;11.546;2023-02-08T11:47:32;97651.59;;;2.94;50.13
29239;BME280;16267;48.194;11.546;2023-02-08T11:50:05;97641.44;;;2.96;50.08
29239;BME280;16267;48.194;11.546;2023-02-08T11:52:40;97647.31;;;2.67;48.90
29239;BME280;16267;48.194;11.546;2023-02-08T11:55:23;97649.28;;;2.53;50.08
29239;BME280;16267;48.194;11.546;2023-02-08T11:58:22;97635.94;;;2.35;50.48
29239;BME280;16267;48.194;11.546;2023-02-08T12:01:15;97639.38;;;2.05;51.02
29239;BME280;16267;48.194;11.546;2023-02-08T12:03:42;97640.66;;;2.07;51.50
29239;BME280;16267;48.194;11.546;2023-02-08T12:21:26;97617.41;;;1.50;53.50
29239;BME280;16267;48.194;11.546;2023-02-08T12:24:09;97604.19;;;1.50;52.67
29239;BME280;16267;48.194;11.546;2023-02-08T12:35:57;97594.44;;;1.15;54.75
29239;BME280;16267;48.194;11.546;2023-02-08T12:41:58;97586.97;;;1.17;54.10
29239;BME280;16267;48.194;11.546;2023-02-08T12:44:55;97585.81;;;1.09;53.98
29239;BME280;16267;48.194;11.546;2023-02-08T12:50:26;97571.50;;;1.10;55.65
29239;BME280;16267;48.194;11.546;2023-02-08T12:53:01;97572.13;;;1.07;55.04
29239;BME280;16267;48.194;11.546;2023-02-08T12:55:30;97572.16;;;0.93;54.39
29239;BME280;16267;48.194;11.546;2023-02-08T13:00:42;97557.84;;;0.94;54.50
29239;BME280;16267;48.194;11.546;2023-02-08T13:03:34;97557.66;;;0.91;54.47
29239;BME280;16267;48.194;11.546;2023-02-08T13:06:06;97561.56;;;0.93;55.10
29239;BME280;16267;48.194;11.546;2023-02-08T13:14:13;97539.59;;;0.84;55.08
29239;BME280;16267;48.194;11.546;2023-02-08T13:16:47;97547.13;;;0.77;54.02
29239;BME280;16267;48.194;11.546;2023-02-08T13:22:06;97551.75;;;0.71;54.67
29239;BME280;16267;48.194;11.546;2023-02-08T13:24:39;97532.88;;;0.64;54.75
29239;BME280;16267;48.194;11.546;2023-02-08T13:27:05;97535.31;;;0.60;55.10
29239;BME280;16267;48.194;11.546;2023-02-08T13:29:34;97538.03;;;0.69;54.88
29239;BME280;16267;48.194;11.546;2023-02-08T13:32:22;97539.31;;;0.72;55.11
29239;BME280;16267;48.194;11.546;2023-02-08T13:35:12;97527.34;;;0.74;55.47
29239;BME280;16267;48.194;11.546;2023-02-08T13:37:38;97522.78;;;0.66;55.54
29239;BME280;16267;48.194;11.546;2023-02-08T13:40:21;97524.03;;;0.69;55.79
29239;BME280;16267;48.194;11.546;2023-02-08T13:45:44;97522.38;;;0.73;55.68
29239;BME280;16267;48.194;11.546;2023-02-08T13:48:16;97516.00;;;0.74;55.75
29239;BME280;16267;48.194;11.546;2023-02-08T13:50:52;97511.03;;;0.72;55.70
29239;BME280;16267;48.194;11.546;2023-02-08T13:56:08;97506.91;;;0.66;55.52
29239;BME280;16267;48.194;11.546;2023-02-08T14:01:26;97506.03;;;0.71;55.61
29239;BME280;16267;48.194;11.546;2023-02-08T14:04:22;97503.59;;;0.60;55.50
29239;BME280;16267;48.194;11.546;2023-02-08T14:12:52;97500.13;;;0.51;56.12
29239;BME280;16267;48.194;11.546;2023-02-08T14:15:29;97497.47;;;0.51;55.79
29239;BME280;16267;48.194;11.546;2023-02-08T14:17:56;97505.28;;;0.56;55.97
29239;BME280;16267;48.194;11.546;2023-02-08T14:20:39;97504.09;;;0.62;56.00
29239;BME280;16267;48.194;11.546;2023-02-08T14:23:26;97498.22;;;0.65;55.79
29239;BME280;16267;48.194;11.546;2023-02-08T14:25:56;97511.53;;;0.60;55.92
29239;BME280;16267;48.194;11.546;2023-02-08T14:28:34;97513.59;;;0.63;55.53
29239;BME280;16267;48.194;11.546;2023-02-08T14:31:06;97501.19;;;0.64;55.72
29239;BME280;16267;48.194;11.546;2023-02-08T14:34:04;97500.78;;;0.57;55.45
29239;BME280;16267;48.194;11.546;2023-02-08T14:36:34;97499.69;;;0.58;55.72
29239;BME280;16267;48.194;11.546;2023-02-08T14:39:25;97504.38;;;0.61;55.64
29239;BME280;16267;48.194;11.546;2023-02-08T14:42:03;97496.28;;;0.57;55.54
29239;BME280;16267;48.194;11.546;2023-02-08T14:52:33;97492.13;;;0.42;55.58
29239;BME280;16267;48.194;11.546;2023-02-08T14:55:15;97483.78;;;0.49;55.79
29239;BME280;16267;48.194;11.546;2023-02-08T14:57:42;97490.53;;;0.41;55.24
29239;BME280;16267;48.194;11.546;2023-02-08T15:00:22;97486.84;;;0.42;55.32
29239;BME280;16267;48.194;11.546;2023-02-08T15:02:52;97489.69;;;0.32;54.88
29239;BME280;16267;48.194;11.546;2023-02-08T15:05:28;97492.72;;;0.39;55.29
29239;BME280;16267;48.194;11.546;2023-02-08T15:07:57;97495.03;;;0.41;54.88
29239;BME280;16267;48.194;11.546;2023-02-08T15:10:25;97492.72;;;0.39;54.28
29239;BME280;16267;48.194;11.546;2023-02-08T15:12:56;97487.63;;;0.43;54.88
29239;BME280;16267;48.194;11.546;2023-02-08T15:17:58;97487.53;;;0.34;54.27
29239;BME280;16267;48.194;11.546;2023-02-08T15:20:32;97490.09;;;0.26;54.44